This is the latest recevied weather packets stored in our database for station/object WE8M. If no packets are shown the sender has not sent any weather packets the latest 10 day(s).
| Time | Temp. | Humidity | Pressure | Rain* | Wind** | Luminosity | Snow |
|---|---|---|---|---|---|---|---|
| 1777931875 | 23.89° C | 50% | 1007.8 hPa | 0 mm | - | - | - |
| 1777931571 | 23.89° C | 50% | 1007.8 hPa | 0 mm | - | - | - |
| 1777930661 | 23.33° C | 50% | 1008.3 hPa | 0 mm | - | - | - |
| 1777930357 | 22.78° C | 51% | 1008.3 hPa | 0 mm | - | - | - |
| 1777930054 | 22.78° C | 50% | 1008.2 hPa | 0 mm | - | - | - |
| 1777929751 | 22.78° C | 51% | 1008.2 hPa | 0 mm | - | - | - |
| 1777929449 | 22.78° C | 53% | 1008.1 hPa | 0 mm | - | - | - |
| 1777929144 | 22.78° C | 50% | 1008.2 hPa | 0 mm | - | - | - |
| 1777928842 | 22.78° C | 52% | 1008.3 hPa | 0 mm | - | - | - |
| 1777927934 | 24.44° C | 47% | 1008.3 hPa | 0 mm | - | - | - |
| 1777925518 | 23.89° C | 50% | 1009 hPa | 0 mm | - | - | - |
| 1777925215 | 23.33° C | 49% | 1009.1 hPa | 0 mm | - | - | - |
| 1777923091 | 20.56° C | 60% | 1009.7 hPa | 0 mm | - | - | - |
| 1777922789 | 20.56° C | 60% | 1010 hPa | 0 mm | - | - | - |
| 1777922487 | 20.56° C | 61% | 1010.1 hPa | 0 mm | - | - | - |
| 1777922185 | 20.56° C | 60% | 1010 hPa | 0 mm | - | - | - |
| 1777921881 | 20.56° C | 61% | 1009.8 hPa | 0 mm | - | - | - |
| 1777917640 | 19.44° C | 59% | 1009.4 hPa | 0 mm | - | - | - |
| 1777916125 | 19.44° C | 62% | 1009 hPa | 0 mm | - | - | - |
| 1777914609 | 18.89° C | 56% | 1009.7 hPa | 0 mm | - | - | - |
| 1777912788 | 18.89° C | 59% | 1009.9 hPa | 0 mm | - | - | - |
| 1777911877 | 19.44° C | 59% | 1010 hPa | 0 mm | - | - | - |
| 1777910967 | 17.78° C | 61% | 1010.1 hPa | 0 mm | - | - | - |
| 1777910665 | 17.78° C | 62% | 1010.1 hPa | 0 mm | - | - | - |
| 1777909150 | 17.22° C | 63% | 1010.1 hPa | 0 mm | - | - | - |
* Rain latest hour (hover to see other rain measurements)
** Current wind speed in m/s (hover to see current wind gust speed)